sensor_id;sensor_type;location;lat;lon;timestamp;P1;durP1;ratioP1;P2;durP2;ratioP2
74799;SDS011;63326;45.088;7.658;2023-03-21T00:00:59;24.30;;;14.50;;
74799;SDS011;63326;45.088;7.658;2023-03-21T00:03:29;13.70;;;9.30;;
74799;SDS011;63326;45.088;7.658;2023-03-21T00:06:03;21.60;;;10.30;;
74799;SDS011;63326;45.088;7.658;2023-03-21T00:08:31;20.52;;;11.23;;
74799;SDS011;63326;45.088;7.658;2023-03-21T00:10:59;20.00;;;11.63;;
74799;SDS011;63326;45.088;7.658;2023-03-21T00:13:28;18.45;;;11.75;;
74799;SDS011;63326;45.088;7.658;2023-03-21T00:16:02;22.38;;;11.63;;
74799;SDS011;63326;45.088;7.658;2023-03-21T00:18:41;20.15;;;10.05;;
74799;SDS011;63326;45.088;7.658;2023-03-21T00:23:57;20.00;;;9.85;;
74799;SDS011;63326;45.088;7.658;2023-03-21T00:26:25;20.48;;;11.70;;
74799;SDS011;63326;45.088;7.658;2023-03-21T00:28:52;18.20;;;10.60;;
74799;SDS011;63326;45.088;7.658;2023-03-21T00:31:19;20.83;;;9.95;;
74799;SDS011;63326;45.088;7.658;2023-03-21T00:33:48;20.17;;;11.15;;
74799;SDS011;63326;45.088;7.658;2023-03-21T00:36:14;20.75;;;11.88;;
74799;SDS011;63326;45.088;7.658;2023-03-21T00:38:41;25.60;;;13.77;;
74799;SDS011;63326;45.088;7.658;2023-03-21T00:41:09;17.92;;;12.25;;
74799;SDS011;63326;45.088;7.658;2023-03-21T00:43:51;16.23;;;9.63;;
74799;SDS011;63326;45.088;7.658;2023-03-21T00:46:20;23.85;;;9.85;;
74799;SDS011;63326;45.088;7.658;2023-03-21T00:48:50;16.70;;;11.18;;
74799;SDS011;63326;45.088;7.658;2023-03-21T00:51:21;21.77;;;11.43;;
74799;SDS011;63326;45.088;7.658;2023-03-21T00:53:53;17.63;;;10.82;;
74799;SDS011;63326;45.088;7.658;2023-03-21T00:56:20;21.70;;;10.05;;
74799;SDS011;63326;45.088;7.658;2023-03-21T00:58:48;17.75;;;11.38;;
74799;SDS011;63326;45.088;7.658;2023-03-21T01:01:16;21.05;;;12.65;;
74799;SDS011;63326;45.088;7.658;2023-03-21T01:03:43;19.05;;;9.85;;
74799;SDS011;63326;45.088;7.658;2023-03-21T01:06:16;22.45;;;11.02;;
74799;SDS011;63326;45.088;7.658;2023-03-21T01:08:45;20.52;;;12.40;;
74799;SDS011;63326;45.088;7.658;2023-03-21T01:11:27;20.00;;;11.55;;
74799;SDS011;63326;45.088;7.658;2023-03-21T01:13:54;16.88;;;8.88;;
74799;SDS011;63326;45.088;7.658;2023-03-21T01:16:36;17.48;;;12.05;;
74799;SDS011;63326;45.088;7.658;2023-03-21T01:19:03;14.40;;;9.32;;
74799;SDS011;63326;45.088;7.658;2023-03-21T01:21:40;19.15;;;10.10;;
74799;SDS011;63326;45.088;7.658;2023-03-21T01:24:06;15.57;;;9.32;;
74799;SDS011;63326;45.088;7.658;2023-03-21T01:26:34;17.40;;;9.70;;
74799;SDS011;63326;45.088;7.658;2023-03-21T01:29:03;16.95;;;9.45;;
74799;SDS011;63326;45.088;7.658;2023-03-21T01:31:30;20.02;;;10.68;;
74799;SDS011;63326;45.088;7.658;2023-03-21T01:33:57;14.63;;;8.38;;
74799;SDS011;63326;45.088;7.658;2023-03-21T01:36:24;19.25;;;10.27;;
74799;SDS011;63326;45.088;7.658;2023-03-21T01:39:00;13.52;;;8.80;;
74799;SDS011;63326;45.088;7.658;2023-03-21T01:44:15;17.88;;;12.25;;
74799;SDS011;63326;45.088;7.658;2023-03-21T01:46:48;17.85;;;9.35;;
74799;SDS011;63326;45.088;7.658;2023-03-21T01:49:54;14.85;;;9.63;;
74799;SDS011;63326;45.088;7.658;2023-03-21T01:52:35;21.70;;;11.50;;
74799;SDS011;63326;45.088;7.658;2023-03-21T01:55:18;14.13;;;7.65;;
74799;SDS011;63326;45.088;7.658;2023-03-21T01:58:05;21.45;;;9.80;;
74799;SDS011;63326;45.088;7.658;2023-03-21T02:00:45;19.02;;;9.48;;
74799;SDS011;63326;45.088;7.658;2023-03-21T02:03:25;24.05;;;10.27;;
74799;SDS011;63326;45.088;7.658;2023-03-21T02:06:36;18.88;;;9.45;;
74799;SDS011;63326;45.088;7.658;2023-03-21T02:09:21;23.15;;;9.40;;
74799;SDS011;63326;45.088;7.658;2023-03-21T02:11:51;18.45;;;8.38;;
74799;SDS011;63326;45.088;7.658;2023-03-21T02:14:20;12.15;;;9.95;;
74799;SDS011;63326;45.088;7.658;2023-03-21T02:25:53;18.00;;;8.57;;
74799;SDS011;63326;45.088;7.658;2023-03-21T02:40:14;17.48;;;7.38;;
74799;SDS011;63326;45.088;7.658;2023-03-21T02:45:33;15.43;;;8.70;;
74799;SDS011;63326;45.088;7.658;2023-03-21T02:48:14;15.45;;;7.70;;
74799;SDS011;63326;45.088;7.658;2023-03-21T02:50:57;15.30;;;8.27;;
74799;SDS011;63326;45.088;7.658;2023-03-21T02:53:27;9.35;;;6.72;;
74799;SDS011;63326;45.088;7.658;2023-03-21T02:55:59;12.80;;;8.23;;
74799;SDS011;63326;45.088;7.658;2023-03-21T02:58:29;15.23;;;6.57;;
74799;SDS011;63326;45.088;7.658;2023-03-21T03:00:59;14.50;;;7.53;;
74799;SDS011;63326;45.088;7.658;2023-03-21T03:03:32;12.07;;;7.40;;
74799;SDS011;63326;45.088;7.658;2023-03-21T03:06:02;12.88;;;7.25;;
74799;SDS011;63326;45.088;7.658;2023-03-21T03:11:27;15.38;;;9.18;;
74799;SDS011;63326;45.088;7.658;2023-03-21T03:19:56;10.20;;;5.55;;
74799;SDS011;63326;45.088;7.658;2023-03-21T03:25:28;11.90;;;6.15;;
74799;SDS011;63326;45.088;7.658;2023-03-21T03:28:16;16.40;;;6.57;;
74799;SDS011;63326;45.088;7.658;2023-03-21T03:30:50;11.90;;;7.68;;
74799;SDS011;63326;45.088;7.658;2023-03-21T03:33:38;8.43;;;6.50;;
74799;SDS011;63326;45.088;7.658;2023-03-21T03:36:10;11.90;;;6.53;;
74799;SDS011;63326;45.088;7.658;2023-03-21T03:38:57;14.77;;;7.35;;
74799;SDS011;63326;45.088;7.658;2023-03-21T03:41:26;12.77;;;6.70;;
74799;SDS011;63326;45.088;7.658;2023-03-21T03:44:02;11.55;;;6.78;;
74799;SDS011;63326;45.088;7.658;2023-03-21T03:46:39;10.00;;;7.10;;
74799;SDS011;63326;45.088;7.658;2023-03-21T03:49:22;15.18;;;6.20;;
74799;SDS011;63326;45.088;7.658;2023-03-21T03:51:58;13.20;;;6.68;;
74799;SDS011;63326;45.088;7.658;2023-03-21T03:54:38;11.25;;;6.32;;
74799;SDS011;63326;45.088;7.658;2023-03-21T03:57:08;13.27;;;5.43;;
74799;SDS011;63326;45.088;7.658;2023-03-21T03:59:37;9.40;;;6.47;;
74799;SDS011;63326;45.088;7.658;2023-03-21T04:02:22;13.13;;;6.13;;
74799;SDS011;63326;45.088;7.658;2023-03-21T04:04:49;9.98;;;6.00;;
74799;SDS011;63326;45.088;7.658;2023-03-21T04:07:19;11.68;;;5.95;;
74799;SDS011;63326;45.088;7.658;2023-03-21T04:09:48;11.15;;;7.25;;
74799;SDS011;63326;45.088;7.658;2023-03-21T04:12:18;10.70;;;6.05;;
74799;SDS011;63326;45.088;7.658;2023-03-21T04:15:08;12.80;;;6.93;;
74799;SDS011;63326;45.088;7.658;2023-03-21T04:17:41;13.68;;;6.82;;
74799;SDS011;63326;45.088;7.658;2023-03-21T04:20:08;20.58;;;7.65;;
74799;SDS011;63326;45.088;7.658;2023-03-21T04:22:44;10.52;;;6.43;;
74799;SDS011;63326;45.088;7.658;2023-03-21T04:25:12;15.32;;;8.23;;
74799;SDS011;63326;45.088;7.658;2023-03-21T04:27:54;12.13;;;6.65;;
74799;SDS011;63326;45.088;7.658;2023-03-21T04:33:05;9.95;;;5.45;;
74799;SDS011;63326;45.088;7.658;2023-03-21T04:35:33;12.02;;;7.75;;
74799;SDS011;63326;45.088;7.658;2023-03-21T04:38:04;12.98;;;6.43;;
74799;SDS011;63326;45.088;7.658;2023-03-21T04:40:30;16.60;;;8.82;;
74799;SDS011;63326;45.088;7.658;2023-03-21T04:42:57;20.52;;;9.25;;
74799;SDS011;63326;45.088;7.658;2023-03-21T04:45:26;11.25;;;8.20;;
74799;SDS011;63326;45.088;7.658;2023-03-21T04:47:53;13.85;;;8.50;;
74799;SDS011;63326;45.088;7.658;2023-03-21T04:50:21;14.35;;;6.07;;
74799;SDS011;63326;45.088;7.658;2023-03-21T04:52:47;13.13;;;7.40;;
74799;SDS011;63326;45.088;7.658;2023-03-21T04:55:14;15.63;;;7.80;;
74799;SDS011;63326;45.088;7.658;2023-03-21T04:57:41;15.18;;;7.25;;
74799;SDS011;63326;45.088;7.658;2023-03-21T05:00:08;12.30;;;7.65;;
74799;SDS011;63326;45.088;7.658;2023-03-21T05:02:37;11.45;;;6.53;;
74799;SDS011;63326;45.088;7.658;2023-03-21T05:05:04;12.48;;;6.70;;
74799;SDS011;63326;45.088;7.658;2023-03-21T05:07:32;17.08;;;6.72;;
74799;SDS011;63326;45.088;7.658;2023-03-21T05:09:59;14.05;;;9.05;;
74799;SDS011;63326;45.088;7.658;2023-03-21T05:12:28;12.18;;;6.38;;
74799;SDS011;63326;45.088;7.658;2023-03-21T05:14:55;14.82;;;7.28;;
74799;SDS011;63326;45.088;7.658;2023-03-21T05:17:22;10.82;;;6.55;;
74799;SDS011;63326;45.088;7.658;2023-03-21T05:19:50;14.80;;;5.03;;
74799;SDS011;63326;45.088;7.658;2023-03-21T05:24:46;10.40;;;5.95;;
74799;SDS011;63326;45.088;7.658;2023-03-21T05:27:31;18.95;;;5.95;;
74799;SDS011;63326;45.088;7.658;2023-03-21T05:30:08;9.88;;;6.28;;
74799;SDS011;63326;45.088;7.658;2023-03-21T05:32:38;13.63;;;5.80;;
74799;SDS011;63326;45.088;7.658;2023-03-21T05:35:09;13.15;;;7.05;;
74799;SDS011;63326;45.088;7.658;2023-03-21T05:37:36;10.05;;;6.40;;
74799;SDS011;63326;45.088;7.658;2023-03-21T05:40:05;13.20;;;6.45;;
74799;SDS011;63326;45.088;7.658;2023-03-21T05:42:34;11.68;;;5.88;;
74799;SDS011;63326;45.088;7.658;2023-03-21T05:45:09;14.05;;;7.05;;
74799;SDS011;63326;45.088;7.658;2023-03-21T05:47:37;12.32;;;7.28;;
74799;SDS011;63326;45.088;7.658;2023-03-21T05:50:04;9.50;;;5.10;;
74799;SDS011;63326;45.088;7.658;2023-03-21T05:52:32;9.43;;;6.05;;
74799;SDS011;63326;45.088;7.658;2023-03-21T05:55:06;11.25;;;6.45;;
74799;SDS011;63326;45.088;7.658;2023-03-21T05:57:34;11.13;;;6.93;;
74799;SDS011;63326;45.088;7.658;2023-03-21T06:00:07;12.05;;;6.10;;
74799;SDS011;63326;45.088;7.658;2023-03-21T06:02:40;9.55;;;6.18;;
74799;SDS011;63326;45.088;7.658;2023-03-21T06:05:23;11.93;;;5.90;;
74799;SDS011;63326;45.088;7.658;2023-03-21T06:07:49;9.90;;;5.28;;
74799;SDS011;63326;45.088;7.658;2023-03-21T06:10:16;14.07;;;5.72;;
74799;SDS011;63326;45.088;7.658;2023-03-21T06:12:46;9.73;;;5.38;;
74799;SDS011;63326;45.088;7.658;2023-03-21T06:15:31;13.70;;;6.40;;
74799;SDS011;63326;45.088;7.658;2023-03-21T06:18:11;12.35;;;6.28;;
74799;SDS011;63326;45.088;7.658;2023-03-21T06:20:47;10.77;;;6.30;;
74799;SDS011;63326;45.088;7.658;2023-03-21T06:23:13;11.63;;;7.30;;
74799;SDS011;63326;45.088;7.658;2023-03-21T06:25:41;11.57;;;6.45;;
74799;SDS011;63326;45.088;7.658;2023-03-21T06:28:08;11.68;;;6.25;;
74799;SDS011;63326;45.088;7.658;2023-03-21T06:30:38;9.13;;;5.72;;
74799;SDS011;63326;45.088;7.658;2023-03-21T06:33:12;14.77;;;8.50;;
74799;SDS011;63326;45.088;7.658;2023-03-21T06:35:39;9.20;;;6.50;;
74799;SDS011;63326;45.088;7.658;2023-03-21T06:38:06;9.45;;;5.15;;
74799;SDS011;63326;45.088;7.658;2023-03-21T06:43:00;9.68;;;6.25;;
74799;SDS011;63326;45.088;7.658;2023-03-21T06:45:27;10.90;;;6.22;;
74799;SDS011;63326;45.088;7.658;2023-03-21T06:47:54;10.68;;;6.50;;
74799;SDS011;63326;45.088;7.658;2023-03-21T06:50:31;8.95;;;6.38;;
74799;SDS011;63326;45.088;7.658;2023-03-21T06:52:59;9.32;;;6.10;;
74799;SDS011;63326;45.088;7.658;2023-03-21T06:55:29;11.15;;;6.40;;
74799;SDS011;63326;45.088;7.658;2023-03-21T06:57:58;10.00;;;5.25;;
74799;SDS011;63326;45.088;7.658;2023-03-21T07:00:26;10.38;;;7.03;;
74799;SDS011;63326;45.088;7.658;2023-03-21T07:02:53;10.57;;;5.25;;
74799;SDS011;63326;45.088;7.658;2023-03-21T07:05:22;19.73;;;7.35;;
74799;SDS011;63326;45.088;7.658;2023-03-21T07:07:49;13.52;;;7.03;;
74799;SDS011;63326;45.088;7.658;2023-03-21T07:10:16;10.55;;;6.07;;
74799;SDS011;63326;45.088;7.658;2023-03-21T07:12:50;11.13;;;5.53;;
74799;SDS011;63326;45.088;7.658;2023-03-21T07:15:22;14.15;;;6.80;;
74799;SDS011;63326;45.088;7.658;2023-03-21T07:17:50;11.93;;;6.15;;
74799;SDS011;63326;45.088;7.658;2023-03-21T07:20:17;10.98;;;5.68;;
74799;SDS011;63326;45.088;7.658;2023-03-21T07:22:44;12.82;;;7.82;;
74799;SDS011;63326;45.088;7.658;2023-03-21T07:25:10;11.38;;;6.78;;
74799;SDS011;63326;45.088;7.658;2023-03-21T07:27:38;12.43;;;7.28;;
74799;SDS011;63326;45.088;7.658;2023-03-21T07:30:07;12.85;;;6.05;;
74799;SDS011;63326;45.088;7.658;2023-03-21T07:32:35;10.45;;;5.93;;
74799;SDS011;63326;45.088;7.658;2023-03-21T07:35:04;10.50;;;5.53;;
74799;SDS011;63326;45.088;7.658;2023-03-21T07:37:32;11.02;;;6.97;;
74799;SDS011;63326;45.088;7.658;2023-03-21T07:39:59;12.40;;;6.75;;
74799;SDS011;63326;45.088;7.658;2023-03-21T07:42:25;12.50;;;7.70;;
74799;SDS011;63326;45.088;7.658;2023-03-21T07:44:58;14.93;;;7.32;;
74799;SDS011;63326;45.088;7.658;2023-03-21T07:47:31;18.40;;;7.60;;
74799;SDS011;63326;45.088;7.658;2023-03-21T07:49:58;10.93;;;6.80;;
74799;SDS011;63326;45.088;7.658;2023-03-21T07:52:24;15.20;;;7.30;;
74799;SDS011;63326;45.088;7.658;2023-03-21T07:54:51;10.35;;;6.40;;
74799;SDS011;63326;45.088;7.658;2023-03-21T07:57:18;12.00;;;7.60;;
74799;SDS011;63326;45.088;7.658;2023-03-21T07:59:45;13.55;;;7.63;;
74799;SDS011;63326;45.088;7.658;2023-03-21T08:02:15;14.82;;;8.98;;
74799;SDS011;63326;45.088;7.658;2023-03-21T08:04:42;16.23;;;8.82;;
74799;SDS011;63326;45.088;7.658;2023-03-21T08:07:10;17.17;;;7.53;;
74799;SDS011;63326;45.088;7.658;2023-03-21T08:09:37;13.60;;;7.55;;
74799;SDS011;63326;45.088;7.658;2023-03-21T08:12:04;14.43;;;7.88;;
74799;SDS011;63326;45.088;7.658;2023-03-21T08:14:33;14.77;;;9.27;;
74799;SDS011;63326;45.088;7.658;2023-03-21T08:17:02;10.85;;;7.32;;
74799;SDS011;63326;45.088;7.658;2023-03-21T08:19:30;16.88;;;9.07;;
74799;SDS011;63326;45.088;7.658;2023-03-21T08:21:57;13.63;;;9.05;;
74799;SDS011;63326;45.088;7.658;2023-03-21T08:24:27;16.08;;;11.18;;
74799;SDS011;63326;45.088;7.658;2023-03-21T08:26:55;16.20;;;9.07;;
74799;SDS011;63326;45.088;7.658;2023-03-21T08:29:22;17.05;;;9.82;;
74799;SDS011;63326;45.088;7.658;2023-03-21T08:31:50;20.27;;;11.50;;
74799;SDS011;63326;45.088;7.658;2023-03-21T08:34:17;15.00;;;9.63;;
74799;SDS011;63326;45.088;7.658;2023-03-21T08:36:44;14.02;;;8.13;;
74799;SDS011;63326;45.088;7.658;2023-03-21T08:39:12;19.08;;;11.85;;
74799;SDS011;63326;45.088;7.658;2023-03-21T08:41:39;12.77;;;8.80;;
74799;SDS011;63326;45.088;7.658;2023-03-21T08:44:05;16.10;;;9.25;;
74799;SDS011;63326;45.088;7.658;2023-03-21T08:46:32;14.43;;;7.65;;
74799;SDS011;63326;45.088;7.658;2023-03-21T08:48:59;18.38;;;11.52;;
74799;SDS011;63326;45.088;7.658;2023-03-21T08:51:25;16.35;;;10.55;;
74799;SDS011;63326;45.088;7.658;2023-03-21T08:53:52;18.63;;;11.10;;
74799;SDS011;63326;45.088;7.658;2023-03-21T08:56:19;17.20;;;10.00;;
74799;SDS011;63326;45.088;7.658;2023-03-21T08:58:45;17.70;;;8.57;;
74799;SDS011;63326;45.088;7.658;2023-03-21T09:01:12;20.27;;;11.85;;
74799;SDS011;63326;45.088;7.658;2023-03-21T09:03:41;16.23;;;9.90;;
74799;SDS011;63326;45.088;7.658;2023-03-21T09:06:09;20.77;;;11.57;;
74799;SDS011;63326;45.088;7.658;2023-03-21T09:08:39;14.60;;;8.20;;
74799;SDS011;63326;45.088;7.658;2023-03-21T09:11:07;16.52;;;10.38;;
74799;SDS011;63326;45.088;7.658;2023-03-21T09:13:34;15.13;;;8.95;;
74799;SDS011;63326;45.088;7.658;2023-03-21T09:16:01;11.38;;;7.22;;
74799;SDS011;63326;45.088;7.658;2023-03-21T09:18:29;16.30;;;9.57;;
74799;SDS011;63326;45.088;7.658;2023-03-21T09:21:14;20.15;;;12.02;;
74799;SDS011;63326;45.088;7.658;2023-03-21T09:23:43;21.65;;;13.35;;
74799;SDS011;63326;45.088;7.658;2023-03-21T09:26:11;18.92;;;14.68;;
74799;SDS011;63326;45.088;7.658;2023-03-21T09:28:40;19.80;;;12.90;;
74799;SDS011;63326;45.088;7.658;2023-03-21T09:31:08;20.15;;;13.52;;
74799;SDS011;63326;45.088;7.658;2023-03-21T09:33:37;21.35;;;14.05;;
74799;SDS011;63326;45.088;7.658;2023-03-21T09:36:06;23.15;;;14.50;;
74799;SDS011;63326;45.088;7.658;2023-03-21T09:38:44;19.88;;;12.38;;
74799;SDS011;63326;45.088;7.658;2023-03-21T09:43:57;23.35;;;14.60;;
74799;SDS011;63326;45.088;7.658;2023-03-21T09:49:18;25.33;;;18.08;;
74799;SDS011;63326;45.088;7.658;2023-03-21T09:54:25;22.90;;;15.88;;
74799;SDS011;63326;45.088;7.658;2023-03-21T09:56:55;13.70;;;9.10;;
74799;SDS011;63326;45.088;7.658;2023-03-21T09:59:36;25.50;;;17.88;;
74799;SDS011;63326;45.088;7.658;2023-03-21T10:05:01;25.40;;;16.45;;
74799;SDS011;63326;45.088;7.658;2023-03-21T10:07:39;26.70;;;17.20;;
74799;SDS011;63326;45.088;7.658;2023-03-21T10:10:14;27.00;;;17.00;;
74799;SDS011;63326;45.088;7.658;2023-03-21T10:12:45;26.92;;;17.95;;
74799;SDS011;63326;45.088;7.658;2023-03-21T10:15:17;25.00;;;17.55;;
74799;SDS011;63326;45.088;7.658;2023-03-21T10:17:56;26.45;;;17.33;;
74799;SDS011;63326;45.088;7.658;2023-03-21T10:20:31;20.95;;;13.00;;
74799;SDS011;63326;45.088;7.658;2023-03-21T10:23:00;18.77;;;12.80;;
74799;SDS011;63326;45.088;7.658;2023-03-21T10:25:31;24.63;;;16.40;;
74799;SDS011;63326;45.088;7.658;2023-03-21T10:28:01;25.20;;;16.35;;
74799;SDS011;63326;45.088;7.658;2023-03-21T10:30:41;26.75;;;19.20;;
74799;SDS011;63326;45.088;7.658;2023-03-21T10:33:13;25.33;;;15.57;;
74799;SDS011;63326;45.088;7.658;2023-03-21T10:35:48;29.98;;;19.40;;
74799;SDS011;63326;45.088;7.658;2023-03-21T10:38:19;20.13;;;12.73;;
74799;SDS011;63326;45.088;7.658;2023-03-21T10:40:48;25.00;;;16.58;;
74799;SDS011;63326;45.088;7.658;2023-03-21T10:45:51;24.63;;;14.05;;
74799;SDS011;63326;45.088;7.658;2023-03-21T10:48:19;23.80;;;15.15;;
74799;SDS011;63326;45.088;7.658;2023-03-21T10:50:50;24.77;;;16.13;;
74799;SDS011;63326;45.088;7.658;2023-03-21T10:53:21;25.10;;;17.70;;
74799;SDS011;63326;45.088;7.658;2023-03-21T10:56:00;23.13;;;15.23;;
74799;SDS011;63326;45.088;7.658;2023-03-21T10:58:29;24.80;;;16.35;;
74799;SDS011;63326;45.088;7.658;2023-03-21T11:01:01;23.38;;;16.65;;
74799;SDS011;63326;45.088;7.658;2023-03-21T11:03:54;21.58;;;13.88;;
74799;SDS011;63326;45.088;7.658;2023-03-21T11:06:25;24.80;;;14.25;;
74799;SDS011;63326;45.088;7.658;2023-03-21T11:11:40;22.73;;;15.68;;
74799;SDS011;63326;45.088;7.658;2023-03-21T11:14:31;20.92;;;13.35;;
74799;SDS011;63326;45.088;7.658;2023-03-21T11:17:06;24.67;;;15.85;;
74799;SDS011;63326;45.088;7.658;2023-03-21T11:19:58;19.83;;;12.95;;
74799;SDS011;63326;45.088;7.658;2023-03-21T11:22:38;22.75;;;16.38;;
74799;SDS011;63326;45.088;7.658;2023-03-21T11:25:09;17.92;;;13.48;;
74799;SDS011;63326;45.088;7.658;2023-03-21T11:27:53;21.63;;;14.13;;
74799;SDS011;63326;45.088;7.658;2023-03-21T11:30:24;20.15;;;13.43;;
74799;SDS011;63326;45.088;7.658;2023-03-21T11:32:54;24.42;;;13.13;;
74799;SDS011;63326;45.088;7.658;2023-03-21T11:35:33;20.38;;;12.50;;
74799;SDS011;63326;45.088;7.658;2023-03-21T11:38:03;19.33;;;11.45;;
74799;SDS011;63326;45.088;7.658;2023-03-21T11:40:31;16.80;;;11.32;;
74799;SDS011;63326;45.088;7.658;2023-03-21T11:45:32;18.15;;;12.05;;
74799;SDS011;63326;45.088;7.658;2023-03-21T11:48:03;18.63;;;12.77;;
74799;SDS011;63326;45.088;7.658;2023-03-21T11:50:42;11.45;;;7.68;;
74799;SDS011;63326;45.088;7.658;2023-03-21T11:53:24;20.05;;;12.45;;
74799;SDS011;63326;45.088;7.658;2023-03-21T12:09:40;18.77;;;11.95;;
74799;SDS011;63326;45.088;7.658;2023-03-21T12:12:20;17.80;;;11.88;;
74799;SDS011;63326;45.088;7.658;2023-03-21T12:15:21;21.50;;;14.55;;
74799;SDS011;63326;45.088;7.658;2023-03-21T12:20:55;19.05;;;11.82;;
74799;SDS011;63326;45.088;7.658;2023-03-21T12:26:03;17.83;;;12.52;;
74799;SDS011;63326;45.088;7.658;2023-03-21T12:28:47;15.75;;;10.50;;
74799;SDS011;63326;45.088;7.658;2023-03-21T12:31:52;17.17;;;12.10;;
74799;SDS011;63326;45.088;7.658;2023-03-21T12:37:35;16.15;;;11.65;;
74799;SDS011;63326;45.088;7.658;2023-03-21T12:40:56;14.75;;;10.00;;
74799;SDS011;63326;45.088;7.658;2023-03-21T12:45:47;21.30;;;14.65;;
74799;SDS011;63326;45.088;7.658;2023-03-21T12:48:52;17.67;;;13.52;;
74799;SDS011;63326;45.088;7.658;2023-03-21T12:51:15;20.08;;;12.52;;
74799;SDS011;63326;45.088;7.658;2023-03-21T12:56:44;15.23;;;11.30;;
74799;SDS011;63326;45.088;7.658;2023-03-21T13:01:38;12.40;;;8.32;;
74799;SDS011;63326;45.088;7.658;2023-03-21T13:04:14;13.75;;;10.43;;
74799;SDS011;63326;45.088;7.658;2023-03-21T13:06:59;14.73;;;11.00;;
74799;SDS011;63326;45.088;7.658;2023-03-21T13:09:35;16.52;;;12.40;;
74799;SDS011;63326;45.088;7.658;2023-03-21T13:12:11;18.23;;;13.27;;
74799;SDS011;63326;45.088;7.658;2023-03-21T13:15:04;17.15;;;14.63;;
74799;SDS011;63326;45.088;7.658;2023-03-21T13:17:52;17.42;;;12.52;;
74799;SDS011;63326;45.088;7.658;2023-03-21T13:20:49;17.75;;;11.52;;
74799;SDS011;63326;45.088;7.658;2023-03-21T13:23:20;16.88;;;11.55;;
74799;SDS011;63326;45.088;7.658;2023-03-21T13:25:49;18.58;;;11.85;;
74799;SDS011;63326;45.088;7.658;2023-03-21T13:28:19;16.20;;;11.40;;
74799;SDS011;63326;45.088;7.658;2023-03-21T13:33:49;17.25;;;12.98;;
74799;SDS011;63326;45.088;7.658;2023-03-21T13:36:22;14.57;;;10.27;;
74799;SDS011;63326;45.088;7.658;2023-03-21T13:38:58;16.60;;;11.20;;
74799;SDS011;63326;45.088;7.658;2023-03-21T13:41:30;17.13;;;11.60;;
74799;SDS011;63326;45.088;7.658;2023-03-21T13:59:12;17.05;;;12.40;;
74799;SDS011;63326;45.088;7.658;2023-03-21T14:01:59;14.05;;;9.48;;
74799;SDS011;63326;45.088;7.658;2023-03-21T14:04:26;13.05;;;9.05;;
74799;SDS011;63326;45.088;7.658;2023-03-21T14:07:22;14.35;;;9.98;;
74799;SDS011;63326;45.088;7.658;2023-03-21T14:09:54;11.98;;;9.00;;
74799;SDS011;63326;45.088;7.658;2023-03-21T14:12:29;14.07;;;9.38;;
74799;SDS011;63326;45.088;7.658;2023-03-21T14:15:05;13.60;;;10.32;;
74799;SDS011;63326;45.088;7.658;2023-03-21T14:17:52;15.10;;;11.07;;
74799;SDS011;63326;45.088;7.658;2023-03-21T14:22:58;14.68;;;8.98;;
74799;SDS011;63326;45.088;7.658;2023-03-21T14:28:07;13.68;;;10.15;;
74799;SDS011;63326;45.088;7.658;2023-03-21T14:30:40;12.27;;;8.80;;
74799;SDS011;63326;45.088;7.658;2023-03-21T14:33:24;13.77;;;9.48;;
74799;SDS011;63326;45.088;7.658;2023-03-21T14:35:55;13.68;;;8.95;;
74799;SDS011;63326;45.088;7.658;2023-03-21T14:38:25;12.23;;;8.50;;
74799;SDS011;63326;45.088;7.658;2023-03-21T14:40:57;13.38;;;7.80;;
74799;SDS011;63326;45.088;7.658;2023-03-21T14:43:24;13.68;;;8.85;;
74799;SDS011;63326;45.088;7.658;2023-03-21T14:45:53;13.25;;;7.93;;
74799;SDS011;63326;45.088;7.658;2023-03-21T14:48:28;9.30;;;6.90;;
74799;SDS011;63326;45.088;7.658;2023-03-21T14:50:59;12.07;;;6.63;;
74799;SDS011;63326;45.088;7.658;2023-03-21T14:53:30;9.55;;;7.97;;
74799;SDS011;63326;45.088;7.658;2023-03-21T14:56:02;11.73;;;6.65;;
74799;SDS011;63326;45.088;7.658;2023-03-21T14:58:36;11.48;;;7.13;;
74799;SDS011;63326;45.088;7.658;2023-03-21T15:01:06;12.07;;;6.82;;
74799;SDS011;63326;45.088;7.658;2023-03-21T15:03:42;12.70;;;6.40;;
74799;SDS011;63326;45.088;7.658;2023-03-21T15:06:11;11.30;;;6.97;;
74799;SDS011;63326;45.088;7.658;2023-03-21T15:08:39;10.23;;;6.55;;
74799;SDS011;63326;45.088;7.658;2023-03-21T15:11:37;10.30;;;5.95;;
74799;SDS011;63326;45.088;7.658;2023-03-21T15:14:05;14.70;;;7.10;;
74799;SDS011;63326;45.088;7.658;2023-03-21T15:16:34;14.82;;;7.18;;
74799;SDS011;63326;45.088;7.658;2023-03-21T15:19:02;13.90;;;7.35;;
74799;SDS011;63326;45.088;7.658;2023-03-21T15:21:34;13.35;;;6.97;;
74799;SDS011;63326;45.088;7.658;2023-03-21T15:26:39;11.02;;;7.50;;
74799;SDS011;63326;45.088;7.658;2023-03-21T15:29:11;14.80;;;7.70;;
74799;SDS011;63326;45.088;7.658;2023-03-21T15:31:45;13.07;;;7.75;;
74799;SDS011;63326;45.088;7.658;2023-03-21T15:34:17;12.77;;;7.00;;
74799;SDS011;63326;45.088;7.658;2023-03-21T15:36:47;12.70;;;7.53;;
74799;SDS011;63326;45.088;7.658;2023-03-21T15:39:16;14.00;;;8.00;;
74799;SDS011;63326;45.088;7.658;2023-03-21T15:41:55;16.27;;;9.15;;
74799;SDS011;63326;45.088;7.658;2023-03-21T15:46:58;17.00;;;8.05;;
74799;SDS011;63326;45.088;7.658;2023-03-21T16:02:52;15.30;;;9.85;;
74799;SDS011;63326;45.088;7.658;2023-03-21T16:07:56;15.70;;;8.00;;
74799;SDS011;63326;45.088;7.658;2023-03-21T16:10:34;14.07;;;8.52;;
74799;SDS011;63326;45.088;7.658;2023-03-21T16:13:09;12.13;;;8.65;;
74799;SDS011;63326;45.088;7.658;2023-03-21T16:15:37;15.20;;;8.77;;
74799;SDS011;63326;45.088;7.658;2023-03-21T16:18:04;16.70;;;9.30;;
74799;SDS011;63326;45.088;7.658;2023-03-21T16:20:33;16.77;;;9.88;;
74799;SDS011;63326;45.088;7.658;2023-03-21T16:23:02;14.45;;;8.60;;
74799;SDS011;63326;45.088;7.658;2023-03-21T16:25:29;14.18;;;9.10;;
74799;SDS011;63326;45.088;7.658;2023-03-21T16:27:57;13.25;;;8.30;;
74799;SDS011;63326;45.088;7.658;2023-03-21T16:30:24;15.77;;;7.63;;
74799;SDS011;63326;45.088;7.658;2023-03-21T16:32:51;12.05;;;8.00;;
74799;SDS011;63326;45.088;7.658;2023-03-21T16:35:18;15.55;;;7.97;;
74799;SDS011;63326;45.088;7.658;2023-03-21T16:37:48;17.10;;;8.43;;
74799;SDS011;63326;45.088;7.658;2023-03-21T16:40:19;14.15;;;8.00;;
74799;SDS011;63326;45.088;7.658;2023-03-21T16:42:55;16.95;;;8.57;;
74799;SDS011;63326;45.088;7.658;2023-03-21T16:45:22;18.15;;;8.48;;
74799;SDS011;63326;45.088;7.658;2023-03-21T16:47:49;15.60;;;9.93;;
74799;SDS011;63326;45.088;7.658;2023-03-21T16:50:30;19.50;;;9.45;;
74799;SDS011;63326;45.088;7.658;2023-03-21T16:53:01;15.05;;;8.45;;
74799;SDS011;63326;45.088;7.658;2023-03-21T16:55:28;15.98;;;9.25;;
74799;SDS011;63326;45.088;7.658;2023-03-21T16:57:58;15.90;;;9.32;;
74799;SDS011;63326;45.088;7.658;2023-03-21T17:00:26;16.20;;;7.53;;
74799;SDS011;63326;45.088;7.658;2023-03-21T17:02:54;20.15;;;10.90;;
74799;SDS011;63326;45.088;7.658;2023-03-21T17:05:23;17.58;;;9.13;;
74799;SDS011;63326;45.088;7.658;2023-03-21T17:07:52;18.13;;;8.73;;
74799;SDS011;63326;45.088;7.658;2023-03-21T17:10:20;15.77;;;8.38;;
74799;SDS011;63326;45.088;7.658;2023-03-21T17:12:49;16.15;;;8.52;;
74799;SDS011;63326;45.088;7.658;2023-03-21T17:15:16;16.63;;;8.55;;
74799;SDS011;63326;45.088;7.658;2023-03-21T17:17:43;14.05;;;7.55;;
74799;SDS011;63326;45.088;7.658;2023-03-21T17:20:14;14.40;;;8.50;;
74799;SDS011;63326;45.088;7.658;2023-03-21T17:22:49;13.85;;;8.40;;